Time;durP1;ratioP1;P1;durP2;ratioP2;P2;SDS_P1;SDS_P2;PMS_P1;PMS_P2;Temp;Humidity;BMP_temperature;BMP_pressure;BME280_temperature;BME280_humidity;BME280_pressure;Samples;Min_cycle;Max_cycle;Signal;HPM_P1;HPM_P2
2021/12/04 00:00:09;;;;;;;5.43;2.87;;;-4.20;99.90;;;-4.82;93.66;97492.19;171085;28;1071;-75
2021/12/04 00:00:15;;;;;;;5.50;2.97;;;-4.20;99.90;;;-4.92;93.90;97481.38;171634;28;1320;-75
2021/12/04 00:00:23;;;;;;;4.97;2.83;;;-4.20;99.90;;;-4.91;93.96;97485.69;171799;28;820;-75
2021/12/04 00:00:29;;;;;;;4.48;2.67;;;-4.20;99.90;;;-4.99;93.61;97469.59;171732;28;1439;-75
2021/12/04 00:00:42;;;;;;;3.83;2.75;;;-4.20;99.90;;;-4.84;93.79;97494.06;171783;28;899;-75
2021/12/04 00:00:50;;;;;;;4.46;2.78;;;-4.20;99.90;;;-4.90;94.06;97487.41;173091;28;1384;-75
2021/12/04 00:00:59;;;;;;;6.40;3.07;;;-4.20;99.90;;;-4.98;93.72;97473.06;172408;28;1441;-75
2021/12/04 00:01:09;;;;;;;6.64;2.90;;;-4.20;99.90;;;-4.97;93.80;97480.81;171633;28;1319;-75
2021/12/04 00:01:21;;;;;;;6.30;2.96;;;-4.20;99.90;;;-5.15;93.82;97445.19;172436;28;1451;-75
2021/12/04 00:01:28;;;;;;;5.30;2.96;;;-4.20;99.90;;;-4.83;93.74;97495.75;173839;28;1682;-75
2021/12/04 00:01:36;;;;;;;5.48;3.28;;;-4.20;99.90;;;-4.96;93.93;97468.53;173671;28;1245;-75
2021/12/04 00:01:42;;;;;;;6.20;3.47;;;-4.20;99.90;;;-4.91;94.13;97477.81;171783;28;1061;-74
2021/12/04 00:01:50;;;;;;;6.56;3.44;;;-4.20;99.90;;;-4.93;93.83;97477.09;171280;28;1477;-75
2021/12/04 00:02:01;;;;;;;8.24;3.94;;;-4.20;99.90;;;-4.92;94.05;97476.13;171191;28;1325;-75
2021/12/04 00:02:09;;;;;;;7.99;3.90;;;-4.20;99.90;;;-5.03;94.22;97454.97;170944;28;1340;-75
2021/12/04 00:02:16;;;;;;;7.54;3.90;;;-4.20;99.90;;;-4.90;94.30;97486.53;172280;28;2573;-75
2021/12/04 00:02:22;;;;;;;6.64;3.50;;;-4.20;99.90;;;-4.96;94.23;97473.78;171648;28;1605;-75
2021/12/04 00:02:28;;;;;;;5.57;3.33;;;-4.20;99.90;;;-4.88;94.38;97482.06;171648;28;1506;-75
2021/12/04 00:02:35;;;;;;;4.72;3.15;;;-4.20;99.90;;;-5.05;94.13;97462.06;171678;28;1401;-75
2021/12/04 00:02:42;;;;;;;4.53;3.10;;;-4.20;99.90;;;-4.91;93.71;97480.44;172282;28;1354;-75
2021/12/04 00:02:52;;;;;;;4.93;3.17;;;-4.20;99.90;;;-4.92;93.94;97476.13;172431;28;1222;-75
2021/12/04 00:02:58;;;;;;;5.32;3.50;;;-4.20;99.90;;;-4.97;93.82;97467.69;172298;28;2810;-74
2021/12/04 00:03:05;;;;;;;6.00;3.72;;;-4.20;99.90;;;-4.89;93.89;97490.88;172547;28;904;-74
2021/12/04 00:03:11;;;;;;;6.50;3.90;;;-4.20;99.90;;;-4.94;94.01;97477.19;171465;28;1235;-74
2021/12/04 00:03:17;;;;;;;8.73;4.10;;;-4.20;99.90;;;-4.95;93.85;97473.69;173267;28;836;-74
2021/12/04 00:03:23;;;;;;;10.43;4.20;;;-4.30;99.90;;;-4.96;93.74;97473.78;171036;28;1199;-74
2021/12/04 00:03:29;;;;;;;10.43;4.20;;;-4.30;99.90;;;-5.24;93.55;97432.63;171118;28;893;-74
2021/12/04 00:03:35;;;;;;;10.45;4.22;;;-4.30;99.90;;;-5.03;93.70;97467.25;171149;28;864;-74
2021/12/04 00:03:42;;;;;;;10.27;4.03;;;-4.30;99.90;;;-4.97;94.11;97472.94;172402;28;1318;-74
2021/12/04 00:03:48;;;;;;;9.15;3.80;;;-4.20;99.90;;;-4.98;93.59;97471.28;172352;28;1323;-74
2021/12/04 00:03:54;;;;;;;7.50;3.43;;;-4.20;99.90;;;-5.00;93.89;97472.28;171787;28;1271;-74
2021/12/04 00:04:00;;;;;;;7.07;3.27;;;-4.30;99.90;;;-4.99;93.90;97472.22;172440;28;1390;-75
2021/12/04 00:04:06;;;;;;;6.85;3.20;;;-4.20;99.90;;;-5.08;93.85;97459.66;172148;28;1280;-74
2021/12/04 00:04:12;;;;;;;7.40;3.45;;;-4.20;99.90;;;-4.98;93.97;97466.03;171677;28;1376;-74
2021/12/04 00:04:23;;;;;;;7.50;3.65;;;-4.30;99.90;;;-4.98;93.65;97475.69;172548;28;1441;-74
2021/12/04 00:04:36;;;;;;;9.31;4.12;;;-4.30;99.90;;;-4.97;93.73;97472.09;171172;28;1216;-75
2021/12/04 00:04:46;;;;;;;10.35;4.13;;;-4.30;99.90;;;-5.05;93.61;97458.59;170877;28;1474;-74
2021/12/04 00:04:54;;;;;;;8.79;3.74;;;-4.20;99.90;;;-4.93;93.74;97478.88;171059;28;1419;-74
2021/12/04 00:05:02;;;;;;;7.43;3.40;;;-4.30;99.90;;;-4.99;93.72;97464.34;170368;28;1407;-75
2021/12/04 00:05:08;;;;;;;6.93;3.60;;;-4.30;99.90;;;-4.98;94.08;97465.19;171125;28;940;-74
2021/12/04 00:05:16;;;;;;;6.70;3.40;;;-4.20;99.90;;;-4.94;93.87;97469.31;172494;28;1329;-74
2021/12/04 00:05:23;;;;;;;7.10;3.90;;;-4.30;99.90;;;-4.99;93.79;97469.59;172420;28;1001;-75
2021/12/04 00:05:29;;;;;;;6.88;3.90;;;-4.30;99.90;;;-5.06;93.83;97459.53;171055;28;1547;-74
2021/12/04 00:05:35;;;;;;;6.83;3.83;;;-4.30;99.90;;;-5.05;93.72;97463.84;173007;28;1216;-75
2021/12/04 00:05:48;;;;;;;6.70;4.00;;;-4.30;99.90;;;-5.13;93.71;97462.50;172742;28;1458;-74
2021/12/04 00:06:00;;;;;;;6.89;3.65;;;-4.30;99.90;;;-5.03;93.59;97472.50;171773;28;1422;-74
2021/12/04 00:06:29;;;;;;;7.90;3.16;;;-4.30;99.90;;;-5.09;93.83;97465.81;171109;28;1316;-74
2021/12/04 00:06:38;;;;;;;7.25;3.34;;;-4.30;99.90;;;-5.16;93.41;97462.72;172054;28;1205;-74
2021/12/04 00:06:45;;;;;;;6.63;4.10;;;-4.40;99.90;;;-5.15;93.50;97461.78;172304;28;1403;-75
2021/12/04 00:06:51;;;;;;;6.83;3.53;;;-4.40;99.90;;;-5.11;93.67;97470.31;170475;29;1225;-75
2021/12/04 00:06:57;;;;;;;5.68;3.18;;;-4.40;99.90;;;-5.13;93.78;97466.09;172296;28;1442;-74
2021/12/04 00:07:07;;;;;;;5.55;3.00;;;-4.40;99.90;;;-5.13;93.60;97461.69;173183;28;1160;-74
2021/12/04 00:07:13;;;;;;;6.44;3.11;;;-4.40;99.90;;;-5.41;93.68;97422.28;171942;28;1334;-74
2021/12/04 00:07:23;;;;;;;6.70;3.00;;;-4.40;99.90;;;-5.05;93.66;97479.59;173118;28;1247;-74
2021/12/04 00:07:32;;;;;;;6.59;2.94;;;-4.40;99.90;;;-5.07;93.92;97476.22;172472;28;1519;-73
2021/12/04 00:07:38;;;;;;;6.51;2.80;;;-4.40;99.90;;;-5.23;93.46;97450.03;171840;28;1022;-74
2021/12/04 00:07:44;;;;;;;5.72;2.83;;;-4.40;99.90;;;-5.21;93.72;97454.28;170404;29;1417;-74
2021/12/04 00:07:51;;;;;;;6.13;3.15;;;-4.40;99.90;;;-5.13;93.88;97466.09;171404;28;1286;-74
2021/12/04 00:07:57;;;;;;;6.07;3.22;;;-4.40;99.90;;;-5.17;93.62;97462.78;172320;28;1522;-74
2021/12/04 00:08:04;;;;;;;5.04;3.06;;;-4.40;99.90;;;-5.11;93.78;97469.47;170326;29;1553;-74
2021/12/04 00:08:09;;;;;;;4.87;3.07;;;-4.40;99.90;;;-5.11;93.81;97472.94;171167;28;1513;-74
2021/12/04 00:08:15;;;;;;;4.65;2.92;;;-4.40;99.90;;;-5.10;93.84;97471.16;172085;28;1361;-74
2021/12/04 00:08:25;;;;;;;3.90;2.70;;;-4.40;99.90;;;-5.19;93.70;97459.44;171891;28;923;-74
2021/12/04 00:08:33;;;;;;;4.10;2.80;;;-4.40;99.90;;;-5.27;93.79;97444.13;171486;28;1493;-74
2021/12/04 00:08:43;;;;;;;4.59;2.84;;;-4.50;99.90;;;-5.15;93.63;97469.66;171724;28;1006;-74
2021/12/04 00:08:49;;;;;;;4.57;2.90;;;-4.50;99.90;;;-5.18;93.75;97459.31;170563;29;1131;-74
2021/12/04 00:09:02;;;;;;;4.53;2.97;;;-4.50;99.90;;;-5.09;94.07;97473.69;171374;28;1413;-74
2021/12/04 00:09:10;;;;;;;4.56;3.05;;;-4.50;99.90;;;-5.08;93.93;97477.16;171928;28;1362;-74
2021/12/04 00:09:18;;;;;;;5.68;3.23;;;-4.40;99.90;;;-5.24;94.01;97457.09;173712;28;1987;-74
2021/12/04 00:09:25;;;;;;;6.13;3.58;;;-4.50;99.90;;;-5.31;93.86;97439.16;172734;28;1494;-74
2021/12/04 00:09:32;;;;;;;6.43;3.77;;;-4.50;99.90;;;-5.25;93.68;97447.53;172218;28;1585;-74
2021/12/04 00:09:39;;;;;;;6.52;3.78;;;-4.50;99.90;;;-5.08;93.75;97471.91;171590;28;1428;-74
2021/12/04 00:09:47;;;;;;;6.17;3.67;;;-4.50;99.90;;;-5.21;93.59;97459.50;171836;28;923;-74
2021/12/04 00:09:58;;;;;;;5.97;3.17;;;-4.50;99.90;;;-5.25;93.90;97455.41;173877;28;1396;-74
2021/12/04 00:10:06;;;;;;;6.11;3.26;;;-4.50;99.90;;;-5.13;93.67;97471.34;170993;28;1478;-74
2021/12/04 00:10:18;;;;;;;4.47;3.10;;;-4.50;99.90;;;-5.13;94.03;97468.72;173219;28;1090;-74
2021/12/04 00:10:28;;;;;;;4.71;3.16;;;-4.50;99.90;;;-5.23;93.79;97461.38;172349;28;1997;-74
2021/12/04 00:10:34;;;;;;;5.30;3.36;;;-4.50;99.90;;;-5.13;93.90;97480.88;171210;28;1168;-74
2021/12/04 00:10:40;;;;;;;5.25;3.40;;;-4.50;99.90;;;-5.15;93.85;97468.81;170997;28;1229;-74
2021/12/04 00:10:46;;;;;;;5.18;3.55;;;-4.50;99.90;;;-5.21;93.90;97462.13;171644;28;1277;-74
2021/12/04 00:10:52;;;;;;;5.90;3.80;;;-4.50;99.90;;;-5.13;93.96;97473.00;172456;28;934;-74
2021/12/04 00:10:58;;;;;;;5.80;3.55;;;-4.50;99.90;;;-5.25;93.83;97452.78;172244;28;1352;-74
2021/12/04 00:11:04;;;;;;;6.05;3.72;;;-4.50;99.90;;;-5.31;94.22;97436.53;172377;28;1260;-73
2021/12/04 00:11:10;;;;;;;6.23;3.80;;;-4.50;99.90;;;-5.16;94.31;97459.25;172998;28;1206;-74
2021/12/04 00:11:17;;;;;;;7.28;3.74;;;-4.50;99.90;;;-5.11;94.32;97477.34;171712;28;1529;-74
2021/12/04 00:11:23;;;;;;;6.45;3.50;;;-4.50;99.90;;;-5.20;94.14;97461.22;171280;28;1052;-74
2021/12/04 00:11:30;;;;;;;6.25;3.70;;;-4.50;99.90;;;-5.27;94.47;97451.16;171860;28;1002;-74
2021/12/04 00:11:40;;;;;;;6.00;3.50;;;-4.50;99.90;;;-5.20;94.68;97463.00;172038;28;1026;-74
2021/12/04 00:11:57;;;;;;;5.53;3.53;;;-4.50;99.90;;;-5.20;94.59;97461.22;172474;28;1045;-74
2021/12/04 00:12:06;;;;;;;5.22;3.07;;;-4.50;99.90;;;-5.09;94.86;97483.34;173525;28;1691;-74
2021/12/04 00:12:14;;;;;;;6.63;2.93;;;-4.50;99.90;;;-5.10;94.86;97471.16;173145;28;847;-74
2021/12/04 00:12:20;;;;;;;6.70;2.83;;;-4.50;99.90;;;-5.16;94.91;97460.09;173729;28;1318;-74
2021/12/04 00:12:26;;;;;;;7.83;3.57;;;-4.50;99.90;;;-5.13;94.98;97473.00;172577;28;852;-74
2021/12/04 00:12:33;;;;;;;8.47;3.80;;;-4.50;99.90;;;-5.16;95.08;97464.50;173323;28;1375;-74
2021/12/04 00:12:39;;;;;;;9.03;3.67;;;-4.40;99.90;;;-5.09;95.49;97476.31;172539;28;832;-74
2021/12/04 00:12:45;;;;;;;7.95;3.75;;;-4.50;99.90;;;-5.04;95.42;97484.75;172639;28;1210;-74
2021/12/04 00:12:52;;;;;;;7.60;3.73;;;-4.40;99.90;;;-5.40;95.50;97427.44;171796;28;1232;-74
2021/12/04 00:12:58;;;;;;;7.28;3.30;;;-4.40;99.90;;;-5.14;95.23;97467.88;171457;28;1078;-74
2021/12/04 00:13:03;;;;;;;7.20;3.20;;;-4.40;99.90;;;-5.04;95.32;97483.91;170408;29;1047;-74
2021/12/04 00:13:09;;;;;;;6.25;3.47;;;-4.40;99.90;;;-5.06;95.49;97477.91;171592;28;1488;-73
2021/12/04 00:13:15;;;;;;;6.15;3.38;;;-4.40;99.90;;;-5.10;95.02;97469.38;171882;28;967;-74
2021/12/04 00:13:22;;;;;;;6.15;3.22;;;-4.40;99.90;;;-5.25;95.37;97441.44;172555;28;1366;-75
2021/12/04 00:13:28;;;;;;;6.97;3.20;;;-4.40;99.90;;;-5.05;95.79;97480.44;173108;28;1540;-74
2021/12/04 00:13:34;;;;;;;6.00;3.08;;;-4.40;99.90;;;-5.05;95.75;97476.97;171617;28;1013;-74
2021/12/04 00:13:40;;;;;;;6.00;2.90;;;-4.40;99.90;;;-5.05;95.77;97477.81;170524;28;1609;-74
2021/12/04 00:13:46;;;;;;;7.25;2.83;;;-4.40;99.90;;;-4.99;95.81;97481.84;170975;28;983;-74
2021/12/04 00:13:52;;;;;;;8.27;3.13;;;-4.40;99.90;;;-5.07;95.72;97473.59;171723;28;1065;-74
2021/12/04 00:13:58;;;;;;;7.35;3.30;;;-4.40;99.90;;;-5.04;95.74;97476.03;171195;28;1329;-74
2021/12/04 00:14:04;;;;;;;8.43;3.42;;;-4.40;99.90;;;-5.13;95.97;97462.50;172175;28;1339;-74
2021/12/04 00:14:09;;;;;;;8.38;3.38;;;-4.40;99.90;;;-4.98;95.89;97483.56;172312;28;1421;-74
2021/12/04 00:14:15;;;;;;;6.95;3.67;;;-4.40;99.90;;;-5.00;95.82;97488.88;171693;28;1016;-74
2021/12/04 00:14:22;;;;;;;6.50;3.45;;;-4.40;99.90;;;-5.01;95.68;97483.72;171788;28;1683;-74
2021/12/04 00:14:35;;;;;;;9.60;3.40;;;-4.40;99.90;;;-5.16;95.97;97449.59;172500;28;2029;-74
2021/12/04 00:14:41;;;;;;;8.55;3.40;;;-4.40;99.90;;;-5.07;95.57;97465.72;173048;28;1228;-74
2021/12/04 00:14:48;;;;;;;9.20;3.17;;;-4.40;99.90;;;-5.04;95.70;97473.41;171668;28;1307;-73
2021/12/04 00:14:54;;;;;;;8.10;3.20;;;-4.40;99.90;;;-5.01;95.57;97484.56;171699;28;1386;-74
2021/12/04 00:15:02;;;;;;;5.53;3.13;;;-4.40;99.90;;;-5.13;95.76;97462.50;172236;28;1183;-74
2021/12/04 00:15:09;;;;;;;5.85;3.08;;;-4.40;99.90;;;-5.07;95.60;97476.22;172468;28;1560;-74
2021/12/04 00:15:15;;;;;;;5.55;3.28;;;-4.40;99.90;;;-5.01;95.68;97486.34;171744;28;1395;-74
2021/12/04 00:15:21;;;;;;;4.60;3.00;;;-4.40;99.90;;;-5.13;95.63;97465.13;172001;28;1100;-74
2021/12/04 00:15:27;;;;;;;4.50;3.03;;;-4.40;99.90;;;-5.13;95.74;97474.81;170879;28;1667;-74
2021/12/04 00:15:33;;;;;;;4.70;3.02;;;-4.40;99.90;;;-5.16;95.39;97467.97;172473;28;965;-74
2021/12/04 00:15:39;;;;;;;5.40;3.13;;;-4.40;99.90;;;-5.05;95.51;97495.34;172312;28;1330;-74
2021/12/04 00:15:45;;;;;;;5.13;3.03;;;-4.40;99.90;;;-5.15;95.48;97471.44;171333;28;1501;-74
2021/12/04 00:15:51;;;;;;;5.30;3.10;;;-4.40;99.90;;;-5.14;95.46;97470.50;172338;28;1233;-74
2021/12/04 00:15:57;;;;;;;5.85;3.15;;;-4.50;99.90;;;-5.10;95.53;97479.88;172547;28;848;-74
2021/12/04 00:16:03;;;;;;;6.50;3.28;;;-4.40;99.90;;;-5.13;95.61;97476.59;172129;28;1124;-74
2021/12/04 00:16:09;;;;;;;7.58;3.60;;;-4.40;99.90;;;-5.13;95.63;97473.97;171667;28;1452;-72
2021/12/04 00:16:15;;;;;;;8.05;3.92;;;-4.50;99.90;;;-5.08;95.61;97482.41;170661;28;867;-74
2021/12/04 00:16:21;;;;;;;7.78;3.80;;;-4.50;99.90;;;-5.15;95.47;97474.06;170995;28;936;-74
2021/12/04 00:16:27;;;;;;;7.47;3.85;;;-4.40;99.90;;;-5.17;95.53;97470.66;171458;28;987;-74
2021/12/04 00:16:33;;;;;;;7.23;3.77;;;-4.50;99.90;;;-5.08;95.66;97485.88;170457;28;924;-74
2021/12/04 00:16:38;;;;;;;6.07;3.42;;;-4.50;99.90;;;-5.17;95.46;97465.41;171005;28;1198;-74
2021/12/04 00:16:45;;;;;;;6.57;3.33;;;-4.50;99.90;;;-5.16;95.79;97478.47;171584;28;1392;-74
2021/12/04 00:16:52;;;;;;;7.02;3.50;;;-4.50;99.90;;;-5.13;95.63;97479.22;172475;28;940;-74
2021/12/04 00:16:59;;;;;;;7.04;3.46;;;-4.50;99.90;;;-5.16;95.50;97467.97;172404;28;1010;-74
2021/12/04 00:17:06;;;;;;;7.24;3.40;;;-4.50;99.90;;;-5.16;95.40;97474.97;170426;29;983;-74
2021/12/04 00:17:12;;;;;;;7.37;3.30;;;-4.50;99.90;;;-5.20;95.12;97463.00;171577;28;1296;-74
2021/12/04 00:17:18;;;;;;;6.77;3.20;;;-4.50;99.90;;;-5.15;95.25;97474.06;171839;28;868;-74
2021/12/04 00:17:25;;;;;;;6.53;3.25;;;-4.50;99.90;;;-5.08;95.28;97480.63;171050;28;1213;-73
2021/12/04 00:17:31;;;;;;;6.16;3.24;;;-4.50;99.90;;;-5.20;95.39;97458.59;171033;28;1438;-74
2021/12/04 00:17:37;;;;;;;6.20;3.55;;;-4.50;99.90;;;-5.17;95.41;97465.41;172175;28;1425;-74
2021/12/04 00:17:43;;;;;;;6.05;3.55;;;-4.50;99.90;;;-5.08;95.35;97479.78;172976;28;1856;-73
2021/12/04 00:17:49;;;;;;;6.43;3.85;;;-4.50;99.90;;;-5.18;95.28;97458.50;171640;28;1079;-73
2021/12/04 00:17:56;;;;;;;7.25;4.00;;;-4.50;99.90;;;-5.21;95.21;97459.50;172415;28;1161;-74
2021/12/04 00:18:02;;;;;;;7.06;4.02;;;-4.50;99.90;;;-5.11;94.93;97479.97;172030;28;1319;-73
2021/12/04 00:18:08;;;;;;;5.47;3.87;;;-4.50;99.90;;;-5.13;95.01;97473.97;171103;28;1648;-73
2021/12/04 00:18:14;;;;;;;6.60;3.88;;;-4.50;99.90;;;-5.13;94.96;97476.59;170907;28;1038;-73
2021/12/04 00:18:20;;;;;;;6.80;3.65;;;-4.50;99.90;;;-5.08;95.06;97482.41;173012;28;1453;-74
2021/12/04 00:18:26;;;;;;;6.10;3.67;;;-4.50;99.90;;;-5.20;95.16;97461.22;172471;28;1335;-74
2021/12/04 00:18:32;;;;;;;7.00;3.78;;;-4.50;99.90;;;-5.15;94.84;97463.56;170940;28;1532;-73
2021/12/04 00:18:38;;;;;;;7.47;3.88;;;-4.50;99.90;;;-5.11;95.09;97465.06;171874;28;848;-74
2021/12/04 00:18:44;;;;;;;6.50;3.60;;;-4.40;99.90;;;-5.14;94.92;97465.25;171861;28;1284;-73
2021/12/04 00:18:50;;;;;;;6.85;3.67;;;-4.40;99.90;;;-5.08;94.92;97474.53;171770;28;987;-74
2021/12/04 00:18:56;;;;;;;7.60;3.58;;;-4.40;99.90;;;-5.03;95.13;97475.97;171693;28;1223;-73
2021/12/04 00:19:02;;;;;;;7.72;3.30;;;-4.40;99.90;;;-5.13;94.82;97462.50;171784;28;994;-74
2021/12/04 00:19:08;;;;;;;8.02;3.38;;;-4.40;99.90;;;-5.11;94.89;97469.47;173009;28;1034;-74
2021/12/04 00:19:14;;;;;;;7.75;4.10;;;-4.40;99.90;;;-5.11;94.93;97464.22;173056;28;1206;-74
2021/12/04 00:19:22;;;;;;;7.20;4.07;;;-4.40;99.90;;;-5.09;95.15;97468.44;172953;28;1494;-73
2021/12/04 00:19:28;;;;;;;6.28;3.85;;;-4.40;99.90;;;-5.06;95.21;97476.13;173156;28;978;-74
2021/12/04 00:19:35;;;;;;;4.70;3.85;;;-4.40;99.90;;;-5.10;94.78;97465.91;172697;28;1158;-74
2021/12/04 00:19:41;;;;;;;4.54;3.62;;;-4.40;99.90;;;-5.11;94.93;97456.34;172412;28;1555;-74
2021/12/04 00:19:47;;;;;;;4.35;3.28;;;-4.40;99.90;;;-5.05;95.07;97469.09;172181;28;1312;-74
2021/12/04 00:19:54;;;;;;;6.22;3.55;;;-4.40;99.90;;;-5.10;94.61;97460.66;172981;28;997;-74
2021/12/04 00:20:00;;;;;;;8.40;4.12;;;-4.40;99.90;;;-5.08;95.07;97469.28;171638;28;868;-74
2021/12/04 00:20:09;;;;;;;9.50;4.07;;;-4.40;99.90;;;-5.11;94.56;97464.22;172389;28;1300;-74
2021/12/04 00:20:15;;;;;;;9.33;3.83;;;-4.40;99.90;;;-4.99;95.14;97476.59;171493;28;1376;-74
2021/12/04 00:20:24;;;;;;;10.02;3.72;;;-4.40;99.90;;;-5.08;94.73;97459.66;172359;28;1434;-74
2021/12/04 00:20:30;;;;;;;8.17;3.27;;;-4.40;99.90;;;-5.08;94.72;97464.03;170934;28;1229;-73
2021/12/04 00:20:38;;;;;;;6.94;3.44;;;-4.40;99.90;;;-4.98;95.20;97476.53;172504;28;934;-74
2021/12/04 00:20:44;;;;;;;6.76;3.42;;;-4.40;99.90;;;-5.05;95.07;97469.94;172037;28;1165;-74
2021/12/04 00:20:50;;;;;;;5.18;3.63;;;-4.40;99.90;;;-5.03;95.04;97468.09;172559;28;891;-73
2021/12/04 00:20:56;;;;;;;5.65;3.72;;;-4.40;99.90;;;-5.03;94.91;97464.63;171491;28;1308;-73
2021/12/04 00:21:02;;;;;;;6.15;3.97;;;-4.30;99.90;;;-5.02;94.79;97463.66;171771;28;987;-74
2021/12/04 00:21:08;;;;;;;5.68;3.65;;;-4.30;99.90;;;-5.00;94.93;97469.66;172249;28;1034;-73
2021/12/04 00:21:14;;;;;;;5.97;3.78;;;-4.30;99.90;;;-5.07;94.72;97453.44;172531;28;1038;-74
2021/12/04 00:21:20;;;;;;;6.35;3.28;;;-4.30;99.90;;;-5.11;95.15;97449.31;172694;28;1380;-74
2021/12/04 00:21:26;;;;;;;6.00;3.33;;;-4.30;99.90;;;-5.01;94.62;97460.94;172209;28;1402;-74
2021/12/04 00:21:32;;;;;;;5.82;3.20;;;-4.30;99.90;;;-5.01;94.76;97458.31;172507;28;903;-74
2021/12/04 00:21:38;;;;;;;6.72;3.47;;;-4.30;99.90;;;-5.02;95.04;97461.88;170870;28;1261;-74
2021/12/04 00:21:45;;;;;;;8.06;3.56;;;-4.30;99.90;;;-4.95;94.52;97471.06;170874;28;1503;-74
2021/12/04 00:21:53;;;;;;;8.23;3.77;;;-4.30;99.90;;;-5.06;95.08;97449.88;170714;28;2335;-74
2021/12/04 00:22:00;;;;;;;9.24;3.74;;;-4.30;99.90;;;-4.91;94.64;97467.31;170313;29;1057;-74
2021/12/04 00:22:07;;;;;;;8.55;3.65;;;-4.30;99.90;;;-4.89;94.51;97477.75;171653;28;1413;-74
2021/12/04 00:22:13;;;;;;;7.67;3.97;;;-4.30;99.90;;;-4.93;94.68;97471.84;171675;28;891;-74
2021/12/04 00:22:20;;;;;;;6.50;3.65;;;-4.30;99.90;;;-5.02;94.63;97459.25;171711;28;1119;-73
2021/12/04 00:22:26;;;;;;;5.90;4.00;;;-4.30;99.90;;;-4.92;94.85;97470.88;171095;28;968;-74
2021/12/04 00:22:32;;;;;;;6.05;4.22;;;-4.30;99.90;;;-4.92;94.64;97467.44;170298;29;1054;-74
2021/12/04 00:22:41;;;;;;;6.40;4.23;;;-4.30;99.90;;;-4.95;94.40;97463.19;171907;28;931;-73
2021/12/04 00:22:47;;;;;;;7.79;4.40;;;-4.30;99.90;;;-4.94;94.85;97459.66;170571;28;1782;-73
2021/12/04 00:22:56;;;;;;;9.55;4.75;;;-4.30;99.90;;;-4.96;94.76;97458.03;171055;28;1145;-73
2021/12/04 00:23:02;;;;;;;8.64;4.20;;;-4.30;99.90;;;-4.93;94.58;97465.75;172342;28;1062;-73
2021/12/04 00:23:09;;;;;;;7.47;3.83;;;-4.30;99.90;;;-4.96;94.81;97451.00;172158;28;1402;-74
2021/12/04 00:23:15;;;;;;;6.50;3.50;;;-4.30;99.90;;;-4.91;94.92;97458.59;171788;28;930;-73
2021/12/04 00:23:21;;;;;;;6.03;3.40;;;-4.20;99.90;;;-4.87;94.81;97474.06;172358;28;1822;-73
2021/12/04 00:23:27;;;;;;;6.80;3.47;;;-4.30;99.90;;;-4.97;95.02;97448.47;172415;28;1289;-73
2021/12/04 00:23:33;;;;;;;7.72;3.67;;;-4.20;99.90;;;-4.85;94.99;97466.97;171628;28;1465;-73
2021/12/04 00:23:39;;;;;;;8.68;3.78;;;-4.30;99.90;;;-4.91;94.89;97463.84;170971;28;1399;-73
2021/12/04 00:23:44;;;;;;;8.75;4.18;;;-4.30;99.90;;;-4.89;94.42;97462.84;171817;28;939;-73
2021/12/04 00:23:50;;;;;;;8.18;4.03;;;-4.20;99.90;;;-4.84;94.91;97470.44;170770;28;1218;-73
2021/12/04 00:23:56;;;;;;;8.07;4.07;;;-4.20;99.90;;;-4.84;94.72;97470.44;171045;28;1180;-73
2021/12/04 00:24:03;;;;;;;7.38;3.90;;;-4.20;99.90;;;-4.88;94.67;97456.66;170816;28;1254;-73
2021/12/04 00:24:09;;;;;;;7.30;3.83;;;-4.20;99.90;;;-4.84;94.52;97462.56;171785;28;1139;-73
2021/12/04 00:24:15;;;;;;;7.22;3.70;;;-4.20;99.90;;;-4.87;94.64;97458.31;172297;28;1323;-73
2021/12/04 00:24:23;;;;;;;7.57;4.03;;;-4.20;99.90;;;-4.85;94.76;97461.72;172466;28;1546;-73
2021/12/04 00:24:28;;;;;;;7.13;3.97;;;-4.20;99.90;;;-4.86;95.12;97460.00;171175;28;1014;-73
2021/12/04 00:24:35;;;;;;;7.40;3.90;;;-4.20;99.90;;;-4.86;94.85;97462.63;171074;28;1913;-73
2021/12/04 00:24:41;;;;;;;6.72;3.85;;;-4.20;99.90;;;-4.87;94.56;97457.50;172270;28;1462;-73
2021/12/04 00:24:47;;;;;;;8.63;3.88;;;-4.20;99.90;;;-4.89;94.53;97459.38;172846;28;1552;-73
2021/12/04 00:24:52;;;;;;;10.68;3.97;;;-4.30;99.90;;;-4.86;94.85;97460.00;171666;28;1336;-73
2021/12/04 00:24:58;;;;;;;10.77;4.07;;;-4.30;99.90;;;-4.88;94.65;97455.81;173564;28;1443;-73
2021/12/04 00:25:07;;;;;;;11.27;4.30;;;-4.30;99.90;;;-4.92;94.51;97449.88;173049;28;1409;-73
2021/12/04 00:25:13;;;;;;;10.73;4.23;;;-4.20;99.90;;;-4.89;94.30;97460.22;172940;28;1363;-73
2021/12/04 00:25:19;;;;;;;7.47;3.70;;;-4.30;99.90;;;-4.93;94.19;97450.84;172938;28;1270;-73
2021/12/04 00:25:27;;;;;;;7.47;3.47;;;-4.30;99.90;;;-5.11;94.48;97417.81;172352;28;1399;-73
2021/12/04 00:25:33;;;;;;;7.42;3.48;;;-4.30;99.90;;;-4.94;94.19;97450.94;172828;28;1449;-73
2021/12/04 00:25:40;;;;;;;6.60;3.28;;;-4.30;99.90;;;-4.98;94.33;97444.19;171689;28;1495;-73
2021/12/04 00:25:46;;;;;;;7.65;3.20;;;-4.30;99.90;;;-4.93;94.53;97450.00;172242;28;1393;-73
2021/12/04 00:25:52;;;;;;;6.55;3.33;;;-4.30;99.90;;;-4.96;94.41;97453.63;172236;28;1383;-74
2021/12/04 00:25:57;;;;;;;5.93;3.28;;;-4.30;99.90;;;-4.97;94.27;97445.84;171730;28;1208;-73
2021/12/04 00:26:06;;;;;;;5.25;3.17;;;-4.30;99.90;;;-4.97;94.43;97441.44;170746;28;1337;-73
2021/12/04 00:26:12;;;;;;;4.60;3.23;;;-4.30;99.90;;;-5.06;94.34;97428.03;170438;29;1021;-73
2021/12/04 00:26:18;;;;;;;4.13;3.33;;;-4.30;99.90;;;-4.96;94.54;97439.66;171734;28;1471;-74
2021/12/04 00:26:24;;;;;;;4.15;3.22;;;-4.30;99.90;;;-4.92;94.27;97454.31;171109;28;1197;-73
2021/12/04 00:26:30;;;;;;;4.40;3.33;;;-4.30;99.90;;;-4.91;94.13;97458.59;171406;28;1072;-74
2021/12/04 00:26:37;;;;;;;4.93;3.57;;;-4.30;99.90;;;-4.96;94.02;97450.16;171878;28;855;-74
2021/12/04 00:26:44;;;;;;;5.34;3.78;;;-4.30;99.90;;;-4.96;94.27;97448.38;172335;28;1017;-73
2021/12/04 00:26:53;;;;;;;5.47;3.73;;;-4.30;99.90;;;-5.02;94.23;97432.16;172918;28;1326;-73
2021/12/04 00:26:59;;;;;;;6.43;3.71;;;-4.30;99.90;;;-4.98;94.34;97447.66;172948;28;1330;-73
2021/12/04 00:27:05;;;;;;;6.50;3.90;;;-4.30;99.90;;;-4.99;94.38;97440.72;172661;28;1498;-73
2021/12/04 00:27:12;;;;;;;6.13;3.70;;;-4.30;99.90;;;-5.01;94.38;97433.84;171418;28;1515;-73
2021/12/04 00:27:18;;;;;;;6.07;3.70;;;-4.30;99.90;;;-4.95;94.35;97446.59;172518;28;926;-73
2021/12/04 00:27:24;;;;;;;5.18;3.78;;;-4.30;99.90;;;-4.99;93.97;97450.38;171452;28;1311;-73
2021/12/04 00:27:30;;;;;;;5.10;3.88;;;-4.30;99.90;;;-5.04;94.18;97429.66;172373;28;1175;-73
2021/12/04 00:27:37;;;;;;;5.20;3.90;;;-4.30;99.90;;;-4.95;94.07;97449.22;171793;28;1141;-73
2021/12/04 00:27:44;;;;;;;6.22;4.08;;;-4.30;99.90;;;-5.01;94.27;97436.47;171120;28;895;-73
2021/12/04 00:27:50;;;;;;;7.24;3.98;;;-4.30;99.90;;;-5.04;93.95;97428.81;172104;28;1880;-73
2021/12/04 00:27:56;;;;;;;7.33;3.90;;;-4.30;99.90;;;-5.03;94.08;97436.59;172296;28;1440;-73
2021/12/04 00:28:03;;;;;;;7.37;3.47;;;-4.30;99.90;;;-5.10;94.00;97427.38;172407;28;1104;-74
2021/12/04 00:28:08;;;;;;;6.66;3.32;;;-4.30;99.90;;;-5.03;94.13;97435.75;172309;28;1427;-74
2021/12/04 00:28:14;;;;;;;5.70;3.10;;;-4.30;99.90;;;-5.04;93.77;97434.03;170476;29;1104;-73
2021/12/04 00:28:20;;;;;;;4.97;2.93;;;-4.30;99.90;;;-5.10;93.99;97426.53;170302;28;1308;-73
2021/12/04 00:28:26;;;;;;;5.07;2.92;;;-4.30;99.90;;;-4.97;94.07;97446.69;171821;28;975;-73
2021/12/04 00:28:32;;;;;;;4.65;2.83;;;-4.30;99.90;;;-5.10;93.81;97435.25;171979;28;1172;-73
2021/12/04 00:28:38;;;;;;;4.23;2.57;;;-4.30;99.90;;;-5.08;94.00;97436.03;173045;28;1298;-73
2021/12/04 00:28:44;;;;;;;5.62;3.02;;;-4.30;99.90;;;-5.03;93.95;97447.09;172335;28;1193;-73
2021/12/04 00:28:50;;;;;;;6.13;3.33;;;-4.30;99.90;;;-5.06;93.97;97438.53;173563;28;1730;-73
2021/12/04 00:28:56;;;;;;;6.22;3.47;;;-4.30;99.90;;;-5.05;93.76;97442.84;172434;28;1060;-74
2021/12/04 00:29:03;;;;;;;8.27;3.77;;;-4.40;99.90;;;-5.03;93.78;97448.88;172399;28;1576;-73
2021/12/04 00:29:10;;;;;;;9.05;3.87;;;-4.40;99.90;;;-5.03;94.07;97454.97;170629;28;2054;-73
2021/12/04 00:29:17;;;;;;;7.68;3.88;;;-4.40;99.90;;;-5.00;93.90;97453.91;171082;28;1440;-73
2021/12/04 00:29:24;;;;;;;7.57;3.87;;;-4.40;99.90;;;-5.00;93.85;97453.91;171206;28;1003;-73
2021/12/04 00:29:30;;;;;;;9.28;4.06;;;-4.40;99.90;;;-5.10;93.65;97434.41;171847;28;2019;-73
2021/12/04 00:29:36;;;;;;;7.50;4.03;;;-4.30;99.90;;;-4.97;94.07;97456.34;172342;28;1043;-73
2021/12/04 00:29:42;;;;;;;8.15;4.15;;;-4.30;99.90;;;-5.05;93.92;97454.19;173064;28;1220;-73
2021/12/04 00:29:48;;;;;;;8.43;3.95;;;-4.30;99.90;;;-5.08;94.11;97430.78;171658;28;1467;-73
2021/12/04 00:29:56;;;;;;;9.50;4.18;;;-4.30;99.90;;;-4.96;93.71;97455.41;173127;28;1206;-73
2021/12/04 00:30:03;;;;;;;7.02;3.85;;;-4.30;99.90;;;-5.04;94.04;97444.53;173234;28;1656;-73